createdAt,value
2023-04-11T01:15:12.943Z,959.39
2023-04-11T01:16:12.853Z,959.38
2023-04-11T03:24:46.759Z,958.08
2023-04-11T03:25:46.877Z,958.05
2023-04-11T03:26:45.054Z,958.04
2023-04-11T03:27:46.255Z,958.03
2023-04-11T03:28:44.659Z,957.98
2023-04-11T03:29:44.598Z,957.97
2023-04-11T03:30:44.538Z,957.99
2023-04-11T03:31:44.505Z,957.91
2023-04-11T03:32:44.490Z,957.85
2023-04-11T03:33:44.362Z,957.85
2023-04-11T03:34:44.261Z,957.83
2023-04-11T03:35:44.225Z,957.82
2023-04-11T03:36:44.153Z,957.81
2023-04-11T03:37:44.069Z,957.83
2023-04-11T03:38:44.270Z,957.81
2023-04-11T03:39:43.953Z,957.77
2023-04-11T03:40:43.986Z,957.78
2023-04-11T03:41:43.807Z,957.77
2023-04-11T03:42:43.767Z,957.77
2023-04-11T03:43:43.702Z,957.85
2023-04-11T03:44:43.615Z,957.86
2023-04-11T03:45:43.570Z,957.86
2023-04-11T03:46:43.592Z,957.80
2023-04-11T03:47:43.479Z,957.81
2023-04-11T03:48:43.353Z,957.82
2023-04-11T03:49:43.324Z,957.86
2023-04-11T03:50:43.240Z,957.89
2023-04-11T03:51:43.158Z,957.83
2023-04-11T03:52:43.106Z,957.88
2023-04-11T03:53:43.039Z,957.91
2023-04-11T03:54:43.331Z,957.87
2023-04-11T03:55:42.904Z,957.86
2023-04-11T03:56:42.842Z,957.88
2023-04-11T03:57:42.799Z,957.88
2023-04-11T03:58:42.714Z,957.83
2023-04-11T03:59:42.657Z,957.85
2023-04-11T04:00:42.579Z,957.88
2023-04-11T04:01:42.566Z,957.83
2023-04-11T04:02:42.756Z,957.90
2023-04-11T04:03:42.613Z,957.96
2023-04-11T04:04:42.384Z,957.89
2023-04-11T04:05:42.270Z,957.93
2023-04-11T04:06:42.193Z,957.85
2023-04-11T04:07:42.203Z,957.88
2023-04-11T04:08:42.051Z,957.89
2023-04-11T04:09:42.006Z,957.88
2023-04-11T04:10:41.941Z,957.83
2023-04-11T04:11:41.856Z,957.95
2023-04-11T04:12:41.790Z,957.80
2023-04-11T04:13:41.742Z,957.84
2023-04-11T04:14:41.686Z,957.83
2023-04-11T04:15:41.596Z,957.85
2023-04-11T04:16:41.623Z,957.96
2023-04-11T04:17:41.475Z,957.95
2023-04-11T04:18:41.406Z,957.93
2023-04-11T04:19:41.349Z,958.06
2023-04-11T04:20:41.269Z,958.02
2023-04-11T04:21:41.213Z,958.01
2023-04-11T04:22:41.138Z,958.03
2023-04-11T04:23:41.138Z,957.97
2023-04-11T04:24:41.060Z,958.02
2023-04-11T04:25:40.949Z,958.11
2023-04-11T04:26:40.901Z,958.10
2023-04-11T04:27:40.823Z,958.14
2023-04-11T04:28:40.769Z,958.16
2023-04-11T04:29:40.700Z,958.18
2023-04-11T04:30:40.622Z,958.15
2023-04-11T04:31:40.600Z,958.17
2023-04-11T04:32:40.539Z,958.14
2023-04-11T04:33:40.444Z,958.13
2023-04-11T04:34:40.363Z,958.21
2023-04-11T04:35:40.310Z,958.19
2023-04-11T04:36:40.251Z,958.25
2023-04-11T04:37:40.176Z,958.31
2023-04-11T04:38:40.097Z,958.32
2023-04-11T04:39:40.036Z,958.38
2023-04-11T04:40:39.993Z,958.36
2023-04-11T04:41:39.910Z,958.37
2023-04-11T04:42:39.842Z,958.40
2023-04-11T04:43:39.806Z,958.44
2023-04-11T04:44:39.721Z,958.41
2023-04-11T04:45:39.705Z,958.46
2023-04-11T04:46:39.614Z,958.50
2023-04-11T04:47:39.561Z,958.48
2023-04-11T04:48:39.456Z,958.46
2023-04-11T04:49:39.390Z,958.49
2023-04-11T04:50:39.360Z,958.47
2023-04-11T04:51:39.257Z,958.49
2023-04-11T04:52:39.191Z,958.53
2023-04-11T04:53:39.153Z,958.48
2023-04-11T04:54:39.056Z,958.54
2023-04-11T04:55:39.007Z,958.47
2023-04-11T04:56:38.970Z,958.50
2023-04-11T04:57:38.872Z,958.43
2023-04-11T04:58:38.801Z,958.46
2023-04-11T04:59:38.735Z,958.42
2023-04-11T05:00:38.693Z,958.40
2023-04-11T05:01:38.742Z,958.38
2023-04-11T05:02:38.642Z,958.44
2023-04-11T05:03:38.821Z,958.42
2023-04-11T05:04:38.409Z,958.42
2023-04-11T05:05:38.370Z,958.43
2023-04-11T05:06:38.278Z,958.41
2023-04-11T05:07:38.221Z,958.45
2023-04-11T05:08:38.147Z,958.44
2023-04-11T05:09:38.089Z,958.53
2023-04-11T05:10:38.047Z,958.51
2023-04-11T05:11:37.962Z,958.50
2023-04-11T05:12:37.888Z,958.61
2023-04-11T05:13:37.845Z,958.65
2023-04-11T05:14:37.766Z,958.69
2023-04-11T05:15:37.691Z,958.74
2023-04-11T05:16:37.665Z,958.74
2023-04-11T05:17:37.639Z,958.78
2023-04-11T05:18:37.499Z,958.81
2023-04-11T05:19:37.425Z,958.84
2023-04-11T05:20:37.381Z,958.87
2023-04-11T05:21:37.300Z,958.94
2023-04-11T05:22:37.233Z,958.98
2023-04-11T05:23:37.185Z,958.99
2023-04-11T05:24:37.155Z,959.00
2023-04-11T05:25:37.045Z,959.03
2023-04-11T05:26:36.972Z,959.19
2023-04-11T05:27:36.952Z,959.30
2023-04-11T05:28:36.851Z,959.36
2023-04-11T05:29:36.778Z,959.38
2023-04-11T05:30:36.755Z,959.35
2023-04-11T05:31:36.647Z,959.39
2023-04-11T05:32:36.612Z,959.30
2023-04-11T05:33:36.533Z,959.29
2023-04-11T05:34:36.468Z,959.23
2023-04-11T05:35:36.403Z,959.19
2023-04-11T05:36:36.317Z,959.18
2023-04-11T05:37:36.281Z,959.17
2023-04-11T05:38:36.192Z,959.09
2023-04-11T05:39:36.125Z,959.03
2023-04-11T05:40:36.056Z,959.07
2023-04-11T05:41:36.026Z,959.00
2023-04-11T05:42:35.923Z,958.94
2023-04-11T05:43:35.857Z,958.94
2023-04-11T05:44:35.812Z,958.93
2023-04-11T05:45:35.726Z,958.95
2023-04-11T05:46:35.803Z,958.95
2023-04-11T05:47:35.672Z,958.94
2023-04-11T05:48:35.542Z,958.85
2023-04-11T05:49:35.469Z,958.85
2023-04-11T05:50:35.400Z,958.79
2023-04-11T05:51:35.358Z,958.83
2023-04-11T05:52:35.272Z,958.81
2023-04-11T05:53:35.227Z,958.70
2023-04-11T05:54:35.192Z,958.56
2023-04-11T05:55:35.081Z,958.52
2023-04-11T05:56:35.006Z,958.50
2023-04-11T05:57:34.945Z,958.68
2023-04-11T05:58:34.910Z,958.73
2023-04-11T05:59:34.839Z,958.80
2023-04-11T06:00:34.742Z,958.80
2023-04-11T06:01:34.711Z,958.80
2023-04-11T06:02:34.769Z,958.74
2023-04-11T06:03:34.624Z,958.74
2023-04-11T06:04:34.669Z,958.74
2023-04-11T06:05:34.439Z,958.80
2023-04-11T06:06:34.354Z,958.81
2023-04-11T06:07:34.278Z,958.92
2023-04-11T06:08:34.248Z,958.87
2023-04-11T06:09:34.312Z,959.02
2023-04-11T06:10:34.075Z,959.05
2023-04-11T06:11:34.011Z,959.06
2023-04-11T06:12:34.000Z,959.10
2023-04-11T06:13:33.897Z,959.11
2023-04-11T06:14:33.818Z,959.08
2023-04-11T06:15:33.860Z,959.07
2023-04-11T06:16:33.718Z,959.10
2023-04-11T06:17:33.639Z,959.09
2023-04-11T06:18:33.558Z,959.04
2023-04-11T06:19:33.501Z,959.04
2023-04-11T06:20:33.426Z,959.02
2023-04-11T06:21:33.355Z,959.05
2023-04-11T06:22:33.313Z,959.06
2023-04-11T06:23:33.218Z,959.15
2023-04-11T06:24:33.154Z,959.13
2023-04-11T06:25:33.094Z,959.19
2023-04-11T06:26:33.055Z,959.24
2023-04-11T06:27:32.964Z,959.26
2023-04-11T06:28:32.905Z,959.21
2023-04-11T06:29:32.842Z,959.24
2023-04-11T06:30:32.785Z,959.26
2023-04-11T06:31:32.736Z,959.37
2023-04-11T06:32:32.653Z,959.44
2023-04-11T06:33:32.596Z,959.38
2023-04-11T06:34:32.506Z,959.22
2023-04-11T06:35:32.443Z,959.32
2023-04-11T06:36:32.413Z,959.30
2023-04-11T06:37:32.306Z,959.35
2023-04-11T06:38:32.244Z,959.30
2023-04-11T06:39:32.176Z,959.41
2023-04-11T06:40:32.118Z,959.38
2023-04-11T06:41:32.039Z,959.39
2023-04-11T06:42:31.971Z,959.44
2023-04-11T06:43:31.947Z,959.55
2023-04-11T06:44:31.909Z,959.51
2023-04-11T06:45:31.794Z,959.53
2023-04-11T06:46:31.718Z,959.56
2023-04-11T06:47:31.672Z,959.56
2023-04-11T06:48:31.578Z,959.61
2023-04-11T06:49:31.541Z,959.60
2023-04-11T06:50:31.490Z,959.65
2023-04-11T06:51:31.387Z,959.76
2023-04-11T06:52:31.329Z,959.75
2023-04-11T06:53:31.251Z,959.76
2023-04-11T06:54:31.191Z,959.72
2023-04-11T06:55:31.120Z,959.77
2023-04-11T06:56:31.050Z,959.83
2023-04-11T06:57:31.013Z,959.91
2023-04-11T06:58:30.932Z,959.91
2023-04-11T06:59:30.855Z,959.97
2023-04-11T07:00:30.788Z,959.95
2023-04-11T07:01:30.845Z,959.96
2023-04-11T07:02:30.851Z,959.82
2023-04-11T07:03:30.770Z,959.93
2023-04-11T07:04:30.686Z,959.91
2023-04-11T07:05:30.463Z,959.97
2023-04-11T07:06:30.392Z,959.95
2023-04-11T07:07:30.320Z,959.99
2023-04-11T07:08:30.281Z,959.93
2023-04-11T07:09:30.193Z,959.98
2023-04-11T07:10:30.122Z,960.02
2023-04-11T07:11:30.078Z,960.00
2023-04-11T07:12:29.996Z,960.05
2023-04-11T07:13:29.924Z,960.11
2023-04-11T07:14:29.880Z,960.04
2023-04-11T07:15:29.825Z,959.99
2023-04-11T07:16:29.788Z,959.96
2023-04-11T07:17:29.695Z,960.12
2023-04-11T07:18:29.621Z,960.15
2023-04-11T07:19:29.539Z,960.08
2023-04-11T07:20:29.463Z,960.19
2023-04-11T07:21:29.394Z,960.27
2023-04-11T07:22:29.368Z,960.20
2023-04-11T07:23:29.263Z,960.23
2023-04-11T07:24:29.228Z,960.13
2023-04-11T07:25:29.145Z,960.28
2023-04-11T07:26:29.090Z,960.22
2023-04-11T07:27:29.026Z,960.43
2023-04-11T07:28:28.946Z,960.41
2023-04-11T07:29:28.893Z,960.36
2023-04-11T07:30:28.824Z,960.40
2023-04-11T07:31:28.752Z,960.36
2023-04-11T07:32:28.714Z,960.35
2023-04-11T07:33:28.599Z,960.38
2023-04-11T07:34:28.534Z,960.43
2023-04-11T07:35:28.474Z,960.47
2023-04-11T07:36:28.435Z,960.48
2023-04-11T07:37:28.372Z,960.37
2023-04-11T07:38:28.275Z,960.37
2023-04-11T07:39:28.224Z,960.33
2023-04-11T07:40:28.175Z,960.31
2023-04-11T07:41:28.070Z,960.38
2023-04-11T07:42:27.997Z,960.32
2023-04-11T07:43:27.951Z,960.22
2023-04-11T07:44:27.869Z,960.28
2023-04-11T07:45:27.843Z,960.22
2023-04-11T07:46:27.759Z,960.28
2023-04-11T07:47:27.709Z,960.18
2023-04-11T07:48:27.610Z,960.28
2023-04-11T07:49:27.538Z,960.27
2023-04-11T07:50:27.505Z,960.19
2023-04-11T07:51:27.406Z,960.08
2023-04-11T07:52:27.335Z,960.24
2023-04-11T07:53:27.305Z,960.20
2023-04-11T07:54:27.210Z,960.24
2023-04-11T07:55:27.150Z,960.27
2023-04-11T07:56:27.081Z,960.33
2023-04-11T07:57:27.031Z,960.32
2023-04-11T07:58:26.944Z,960.36
2023-04-11T07:59:26.886Z,960.29
2023-04-11T08:00:26.835Z,960.26
2023-04-11T08:01:26.891Z,960.29
2023-04-11T08:02:26.798Z,960.36
2023-04-11T08:03:26.960Z,960.44
2023-04-11T08:04:26.678Z,960.51
2023-04-11T08:05:26.506Z,960.58
2023-04-11T08:06:26.469Z,960.55
2023-04-11T08:07:26.367Z,960.56
2023-04-11T08:08:26.304Z,960.69
2023-04-11T08:09:26.219Z,960.67
2023-04-11T08:10:26.179Z,960.72
2023-04-11T08:11:26.089Z,960.78
2023-04-11T08:12:26.022Z,960.78
2023-04-11T08:13:25.959Z,960.77
2023-04-11T08:14:25.915Z,960.70
2023-04-11T08:15:25.832Z,960.67
2023-04-11T08:16:25.802Z,960.68
2023-04-11T08:17:28.603Z,960.66
2023-04-11T08:18:25.670Z,960.67
2023-04-11T08:19:25.584Z,960.68
2023-04-11T08:20:25.526Z,960.71
2023-04-11T08:21:25.451Z,960.73
2023-04-11T08:22:25.374Z,960.72
2023-04-11T08:23:25.346Z,960.71
2023-04-11T08:24:25.262Z,960.76
2023-04-11T08:25:25.221Z,960.64
2023-04-11T08:26:25.120Z,960.61
2023-04-11T08:27:25.036Z,960.63
2023-04-11T08:28:25.033Z,960.57
2023-04-11T08:29:24.911Z,960.65
2023-04-11T08:30:24.847Z,960.67
2023-04-11T08:31:24.847Z,960.83
2023-04-11T08:32:24.751Z,960.82
2023-04-11T08:33:24.642Z,960.97
2023-04-11T08:34:24.572Z,960.94
2023-04-11T08:35:24.518Z,960.93
2023-04-11T08:36:24.447Z,960.88
2023-04-11T08:37:24.387Z,960.81
2023-04-11T08:38:24.376Z,960.93
2023-04-11T08:39:24.240Z,960.98
2023-04-11T08:40:26.456Z,961.14
2023-04-11T08:41:24.117Z,961.03
2023-04-11T08:42:24.058Z,961.04
2023-04-11T08:43:23.979Z,961.05
2023-04-11T08:44:23.917Z,961.05
2023-04-11T08:45:23.876Z,961.04
2023-04-11T08:46:23.887Z,960.98
2023-04-11T08:47:23.729Z,961.05
2023-04-11T08:48:23.666Z,961.00
2023-04-11T08:49:23.602Z,961.21
2023-04-11T08:50:23.520Z,961.13
2023-04-11T08:51:23.461Z,961.12
2023-04-11T08:52:23.390Z,961.01
2023-04-11T08:53:23.321Z,961.01
2023-04-11T08:54:23.257Z,960.92
2023-04-11T08:55:23.212Z,960.87
2023-04-11T08:56:23.203Z,961.01
2023-04-11T08:57:23.062Z,960.99
2023-04-11T08:58:23.042Z,961.00
2023-04-11T08:59:22.955Z,960.92
2023-04-11T09:00:22.903Z,960.93
2023-04-11T09:01:22.850Z,961.03
2023-04-11T09:02:22.973Z,961.02
2023-04-11T09:03:22.779Z,961.06
2023-04-11T09:04:22.618Z,961.07
2023-04-11T09:05:22.533Z,961.07
2023-04-11T09:06:22.487Z,961.14
2023-04-11T09:07:22.403Z,961.11
2023-04-11T09:08:22.340Z,961.09
2023-04-11T09:09:22.304Z,961.16
2023-04-11T09:10:22.207Z,961.15
2023-04-11T09:11:22.140Z,961.13
2023-04-11T09:12:22.076Z,961.22
2023-04-11T09:13:22.051Z,961.16
2023-04-11T09:14:21.950Z,961.16
2023-04-11T09:15:21.891Z,961.24
2023-04-11T09:16:21.953Z,961.20
2023-04-11T09:17:21.769Z,961.19
2023-04-11T09:18:21.689Z,961.21
2023-04-11T09:19:21.658Z,961.20
2023-04-11T09:20:21.608Z,961.23
2023-04-11T09:21:21.486Z,961.29
2023-04-11T09:22:21.425Z,961.29
2023-04-11T09:23:21.379Z,961.36
2023-04-11T09:24:21.300Z,961.39
2023-04-11T09:25:21.289Z,961.40
2023-04-11T09:26:22.594Z,961.39
2023-04-11T09:27:21.093Z,961.40
2023-04-11T09:28:21.039Z,961.40
2023-04-11T09:29:20.964Z,961.37
2023-04-11T09:30:20.924Z,961.33
2023-04-11T09:31:20.882Z,961.41
2023-04-11T09:32:20.799Z,961.36
2023-04-11T09:33:20.708Z,961.37
2023-04-11T09:34:20.650Z,961.40
2023-04-11T09:35:20.569Z,961.47
2023-04-11T09:36:20.554Z,961.44
2023-04-11T09:37:20.444Z,961.41
2023-04-11T09:38:20.379Z,961.43
2023-04-11T09:39:20.324Z,961.44
2023-04-11T09:40:20.253Z,961.38
2023-04-11T09:41:20.182Z,961.38
2023-04-11T13:29:41.017Z,961.53
2023-04-11T15:39:13.338Z,961.05
2023-04-11T15:40:16.354Z,961.01
2023-04-11T15:41:13.258Z,961.15
2023-04-11T15:42:13.048Z,961.11
2023-04-11T15:43:11.768Z,961.05
2023-04-11T15:44:12.549Z,961.05
2023-04-11T15:45:10.700Z,961.05
2023-04-11T15:46:10.661Z,961.01
2023-04-11T22:29:52.580Z,959.71
2023-04-11T22:30:52.275Z,959.72
